Time;durP1;ratioP1;P1;durP2;ratioP2;P2;SDS_P1;SDS_P2;PMS_P1;PMS_P2;Temp;Humidity;BMP_temperature;BMP_pressure;BME280_temperature;BME280_humidity;BME280_pressure;Samples;Min_cycle;Max_cycle;Signal;HPM_P1;HPM_P2
2023/06/06 09:08:35;;;;;;;1.30;1.00;;;;;;;23.03;33.37;101486.31;15691976;28;20039;-50
2023/06/06 09:16:08;;;;;;;3.70;1.40;;;;;;;23.51;32.55;101473.88;15736245;28;20440;-50
2023/06/06 09:32:46;;;;;;;4.00;0.95;;;;;;;24.51;32.54;101475.59;15733675;28;20036;-49
2023/06/06 09:40:22;;;;;;;1.25;1.02;;;;;;;24.25;33.56;101483.16;15735488;28;20048;-50
2023/06/06 09:48:00;;;;;;;1.33;0.90;;;;;;;24.50;31.22;101459.41;15735636;28;20059;-51
2023/06/06 09:55:34;;;;;;;1.30;1.00;;;;;;;23.58;33.87;101496.31;15735477;28;20497;-53
2023/06/06 10:03:10;;;;;;;2.38;1.17;;;;;;;24.00;33.20;101491.53;15732393;28;20060;-53
2023/06/06 10:10:44;;;;;;;2.60;1.05;;;;;;;24.55;32.72;101486.81;15732552;28;20075;-57
2023/06/06 10:18:19;;;;;;;2.63;1.35;;;;;;;25.13;32.74;101490.50;15734073;28;20040;-54
2023/06/06 10:25:55;;;;;;;1.38;1.25;;;;;;;24.96;32.60;101481.81;15746464;28;20036;-52
2023/06/06 10:33:42;;;;;;;1.50;0.70;;;;;;;25.26;31.64;101497.19;15746217;28;20040;-56
2023/06/06 10:41:18;;;;;;;2.42;1.25;;;;;;;26.12;31.07;101489.06;15743998;28;20048;-54
2023/06/06 10:49:00;;;;;;;2.30;1.25;;;;;;;25.42;33.08;101484.94;15744012;28;20040;-53
2023/06/06 10:56:44;;;;;;;1.67;0.85;;;;;;;25.60;31.98;101477.03;15742308;28;20053;-54
2023/06/06 11:04:21;;;;;;;1.48;0.85;;;;;;;25.03;32.13;101479.53;15700628;28;20057;-52
2023/06/06 11:12:27;;;;;;;1.90;1.08;;;;;;;24.43;34.19;101476.19;15717227;28;20041;-55
2023/06/06 11:20:03;;;;;;;1.83;1.00;;;;;;;24.71;33.10;101465.56;15717202;28;20057;-54
2023/06/06 11:27:36;;;;;;;1.75;0.77;;;;;;;25.06;32.81;101465.22;15714586;28;20053;-55
2023/06/06 11:35:15;;;;;;;2.47;1.00;;;;;;;24.48;33.52;101469.84;15701937;28;20041;-56
2023/06/06 11:42:47;;;;;;;2.35;0.82;;;;;;;24.57;33.16;101471.69;15709729;28;20574;-54
2023/06/06 11:50:29;;;;;;;1.27;0.90;;;;;;;24.59;33.13;101461.25;15734262;28;20416;-52
2023/06/06 11:58:03;;;;;;;1.98;1.08;;;;;;;24.50;33.17;101460.25;15690740;28;20045;-55
2023/06/06 12:05:38;;;;;;;2.08;0.95;;;;;;;24.26;33.56;101465.59;15691539;28;20455;-54
2023/06/06 12:13:11;;;;;;;0.85;0.50;;;;;;;24.28;33.71;101466.13;15713556;28;20398;-51
2023/06/06 12:20:45;;;;;;;1.77;1.10;;;;;;;24.66;33.09;101445.25;15725875;28;20077;-54
2023/06/06 12:28:18;;;;;;;0.70;0.55;;;;;;;24.30;34.11;101458.44;15682598;28;20045;-54
2023/06/06 12:35:53;;;;;;;1.77;0.90;;;;;;;24.09;34.35;101454.16;15721850;28;20128;-51
2023/06/06 12:43:27;;;;;;;1.23;0.90;;;;;;;23.97;34.88;101442.72;15705013;28;20539;-54
2023/06/06 12:51:01;;;;;;;2.85;1.23;;;;;;;23.70;35.04;101443.97;15723176;28;20049;-52
2023/06/06 12:58:35;;;;;;;1.83;1.10;;;;;;;24.08;34.47;101445.13;15704780;28;20649;-51
2023/06/06 13:06:09;;;;;;;1.45;0.80;;;;;;;23.92;34.97;101441.66;15695765;28;20087;-53
2023/06/06 13:13:43;;;;;;;1.67;1.05;;;;;;;23.83;35.43;101439.81;15713225;28;20041;-55
2023/06/06 13:21:17;;;;;;;1.30;0.93;;;;;;;23.75;35.94;101426.69;15704155;28;20098;-50
2023/06/06 13:28:50;;;;;;;2.17;1.15;;;;;;;23.83;36.05;101435.13;15700956;28;20040;-53
2023/06/06 13:36:25;;;;;;;0.65;0.50;;;;;;;23.78;35.95;101429.69;15698659;28;20171;-52
2023/06/06 13:43:59;;;;;;;3.25;0.88;;;;;;;24.09;35.68;101421.25;15710628;28;20052;-52
2023/06/06 13:51:33;;;;;;;2.83;1.13;;;;;;;23.90;36.56;101423.84;15680397;28;20136;-57
2023/06/06 13:59:06;;;;;;;2.92;1.23;;;;;;;24.02;36.75;101412.53;15722238;28;20106;-53
2023/06/06 14:06:41;;;;;;;1.98;0.90;;;;;;;23.78;36.76;101418.72;15732444;28;20491;-52
2023/06/06 14:14:14;;;;;;;1.42;1.00;;;;;;;23.98;37.05;101414.22;15714505;28;20485;-55
2023/06/06 14:21:58;;;;;;;1.80;1.20;;;;;;;23.86;37.24;101411.81;15722938;28;20127;-53
2023/06/06 14:29:30;;;;;;;3.15;1.48;;;;;;;23.75;38.17;101413.78;15709835;28;20041;-54
2023/06/06 14:37:06;;;;;;;1.85;1.08;;;;;;;23.40;38.53;101404.56;15706660;28;20103;-55
2023/06/06 14:44:38;;;;;;;2.08;1.00;;;;;;;23.39;38.37;101418.56;15715824;28;20137;-57
2023/06/06 14:52:13;;;;;;;2.33;1.17;;;;;;;23.04;39.27;101419.50;15693649;28;20132;-55
2023/06/06 14:59:46;;;;;;;1.98;1.23;;;;;;;22.71;41.81;101418.13;15722897;28;20216;-52
2023/06/06 15:07:21;;;;;;;4.80;1.63;;;;;;;22.29;43.85;101425.53;15725186;28;20492;-53
2023/06/06 15:14:54;;;;;;;1.13;0.82;;;;;;;22.29;43.34;101422.81;15708859;28;20132;-54
2023/06/06 15:22:29;;;;;;;1.95;1.48;;;;;;;22.52;43.21;101423.34;15709248;28;20103;-55
2023/06/06 15:30:03;;;;;;;1.83;1.08;;;;;;;22.96;41.88;101414.59;15728613;28;20122;-52
2023/06/06 15:37:37;;;;;;;3.63;1.33;;;;;;;22.84;41.62;101414.84;15720673;28;20812;-55
2023/06/06 15:45:11;;;;;;;6.00;1.45;;;;;;;22.84;41.29;101404.69;15721682;28;20041;-51
2023/06/06 15:52:46;;;;;;;2.05;0.77;;;;;;;22.75;41.06;101400.88;15678880;28;20045;-51
2023/06/06 16:00:22;;;;;;;2.33;1.42;;;;;;;22.75;41.44;101395.41;15735077;28;20048;-54
2023/06/06 16:07:56;;;;;;;2.95;1.20;;;;;;;22.55;41.38;101401.72;15709052;28;20041;-51
2023/06/06 16:15:29;;;;;;;1.92;1.25;;;;;;;22.97;40.81;101391.59;15733446;28;20045;-52
2023/06/06 16:23:06;;;;;;;1.27;0.73;;;;;;;22.90;40.44;101397.34;15705839;28;20139;-49
2023/06/06 16:30:39;;;;;;;2.67;1.00;;;;;;;23.18;40.68;101395.91;15709258;28;20045;-50
2023/06/06 16:38:13;;;;;;;1.52;1.20;;;;;;;22.65;41.22;101395.44;15709098;28;20132;-51
2023/06/06 16:45:47;;;;;;;2.80;0.85;;;;;;;22.84;40.96;101395.66;15721779;28;20531;-51
2023/06/06 16:53:21;;;;;;;2.22;1.10;;;;;;;22.83;41.11;101391.31;15699989;28;20060;-51
2023/06/06 17:00:53;;;;;;;2.95;1.83;;;;;;;22.54;42.78;101405.56;15718151;28;20068;-50
2023/06/06 17:08:28;;;;;;;1.08;0.70;;;;;;;21.95;44.48;101400.53;15710876;28;20048;-52
2023/06/06 17:16:01;;;;;;;1.23;0.65;;;;;;;22.33;43.25;101390.22;15702519;28;20044;-54
2023/06/06 17:23:36;;;;;;;2.15;1.25;;;;;;;22.37;43.25;101391.34;15708003;28;20131;-52
2023/06/06 17:31:09;;;;;;;1.80;1.30;;;;;;;22.46;43.49;101397.91;15720161;28;20049;-49
2023/06/06 17:38:45;;;;;;;3.00;1.23;;;;;;;22.48;43.53;101394.91;15706958;28;20076;-50
2023/06/06 17:46:18;;;;;;;1.90;1.25;;;;;;;22.18;44.26;101388.31;15696575;28;20047;-49
2023/06/06 17:53:52;;;;;;;2.35;1.23;;;;;;;22.53;43.98;101392.16;15687573;28;20075;-54
2023/06/06 18:01:25;;;;;;;1.65;1.02;;;;;;;22.53;43.60;101397.63;15717943;28;20120;-49
2023/06/06 18:08:59;;;;;;;1.20;0.93;;;;;;;22.19;44.16;101397.34;15706692;28;20041;-52
2023/06/06 18:16:32;;;;;;;1.48;0.88;;;;;;;22.22;43.73;101392.16;15709024;28;20498;-53
2023/06/06 18:24:07;;;;;;;2.03;1.23;;;;;;;22.31;43.42;101397.91;15708259;28;20047;-51
2023/06/06 18:31:40;;;;;;;1.70;1.40;;;;;;;22.36;43.03;101395.97;15717954;28;20792;-52
2023/06/06 18:39:13;;;;;;;;;;;;;;;22.18;43.60;101401.16;15702792;28;20120;-52
2023/06/06 18:46:47;;;;;;;7.53;3.20;;;;;;;22.30;43.67;101399.00;15700336;28;19943;-49
2023/06/06 18:54:21;;;;;;;3.05;1.45;;;;;;;22.11;44.27;101415.09;15692674;28;20041;-51
2023/06/06 19:01:54;;;;;;;2.67;1.40;;;;;;;22.10;44.48;101418.88;15726338;28;20497;-54
2023/06/06 19:09:28;;;;;;;4.18;1.15;;;;;;;21.91;45.88;101430.31;15709108;28;20416;-51
2023/06/06 19:17:01;;;;;;;2.05;0.80;;;;;;;21.91;46.49;101422.13;15708685;28;20052;-52
2023/06/06 19:24:36;;;;;;;1.20;0.80;;;;;;;21.75;46.70;101438.75;15705919;28;20157;-49
2023/06/06 19:32:09;;;;;;;1.30;0.75;;;;;;;21.44;47.71;101440.53;15728681;28;20043;-52
2023/06/06 19:39:48;;;;;;;2.80;1.30;;;;;;;21.52;46.75;101454.50;15706454;28;20058;-49
2023/06/06 19:47:24;;;;;;;2.45;1.33;;;;;;;21.51;47.18;101463.81;15707334;28;20047;-48
2023/06/06 19:54:58;;;;;;;6.00;1.65;;;;;;;21.48;47.36;101474.44;15702407;28;20529;-49
2023/06/06 20:02:38;;;;;;;6.27;1.97;;;;;;;21.08;49.00;101481.28;15699064;28;20070;-51
2023/06/06 20:10:12;;;;;;;3.53;1.27;;;;;;;21.18;48.13;101486.78;15712634;28;20119;-51
2023/06/06 20:17:45;;;;;;;2.47;1.17;;;;;;;21.30;47.99;101487.41;15722582;28;20456;-51
2023/06/06 20:25:19;;;;;;;;;;;;;;;21.31;48.23;101485.53;15712282;28;20567;-52
2023/06/06 20:32:52;;;;;;;3.42;1.67;;;;;;;21.13;48.92;101484.03;15701273;28;19920;-54
2023/06/06 20:40:26;;;;;;;1.38;1.27;;;;;;;21.17;48.68;101481.56;15717626;28;20610;-51
2023/06/06 20:47:59;;;;;;;2.95;1.73;;;;;;;21.03;49.84;101479.31;15718830;28;20036;-49
2023/06/06 20:55:33;;;;;;;2.03;1.27;;;;;;;20.95;50.22;101473.53;15698171;28;20387;-48
2023/06/06 21:03:06;;;;;;;14.05;1.90;;;;;;;20.62;51.16;101459.06;15695248;28;20132;-49
2023/06/06 21:10:47;;;;;;;6.43;2.17;;;;;;;20.58;50.60;101479.78;15707340;28;20400;-49
2023/06/06 21:18:20;;;;;;;1.80;1.63;;;;;;;20.66;51.11;101486.63;15715460;28;20128;-50
2023/06/06 21:25:55;;;;;;;;;;;;;;;20.58;51.81;101479.78;15701337;28;20113;-49
2023/06/06 21:33:28;;;;;;;3.08;1.52;;;;;;;20.71;51.07;101487.53;15681395;28;20493;-52
2023/06/06 21:41:04;;;;;;;2.40;1.50;;;;;;;20.71;51.26;101482.06;15715232;28;20123;-49
2023/06/06 21:48:37;;;;;;;2.45;1.60;;;;;;;20.68;51.18;101488.03;15685122;22;20080;-48
2023/06/06 21:56:13;;;;;;;3.33;1.63;;;;;;;20.67;51.79;101496.50;15672016;28;20469;-50
2023/06/06 22:03:46;;;;;;;7.85;1.90;;;;;;;20.74;52.19;101491.63;15673471;28;20134;-49
2023/06/06 22:11:20;;;;;;;3.10;1.88;;;;;;;20.57;52.34;101489.03;15670089;28;20133;-49
2023/06/06 22:18:53;;;;;;;2.95;1.95;;;;;;;20.56;52.08;101488.22;15680624;28;20045;-49
2023/06/06 22:26:27;;;;;;;2.72;1.80;;;;;;;20.63;51.21;101488.00;15683442;28;20053;-47
